sensor_id;sensor_type;location;lat;lon;timestamp;temperature;humidity
47414;DHT22;33163;0.000;0.000;2023-07-13T00:01:29;23.20;66.00
47414;DHT22;33163;0.000;0.000;2023-07-13T00:03:55;23.20;66.00
47414;DHT22;33163;0.000;0.000;2023-07-13T00:06:22;23.20;66.00
47414;DHT22;33163;0.000;0.000;2023-07-13T00:08:49;23.20;65.90
47414;DHT22;33163;0.000;0.000;2023-07-13T00:11:17;23.20;65.90
47414;DHT22;33163;0.000;0.000;2023-07-13T00:13:44;23.20;65.90
47414;DHT22;33163;0.000;0.000;2023-07-13T00:16:10;23.20;65.90
47414;DHT22;33163;0.000;0.000;2023-07-13T00:18:38;23.20;65.90
47414;DHT22;33163;0.000;0.000;2023-07-13T00:21:05;23.20;65.90
47414;DHT22;33163;0.000;0.000;2023-07-13T00:23:31;23.20;65.90
47414;DHT22;33163;0.000;0.000;2023-07-13T00:25:59;23.20;65.90
47414;DHT22;33163;0.000;0.000;2023-07-13T00:28:27;23.10;65.90
47414;DHT22;33163;0.000;0.000;2023-07-13T00:30:54;23.20;65.90
47414;DHT22;33163;0.000;0.000;2023-07-13T00:33:20;23.20;65.90
47414;DHT22;33163;0.000;0.000;2023-07-13T00:35:48;23.20;65.90
47414;DHT22;33163;0.000;0.000;2023-07-13T00:38:14;23.10;65.80
47414;DHT22;33163;0.000;0.000;2023-07-13T00:40:41;23.20;65.90
47414;DHT22;33163;0.000;0.000;2023-07-13T00:43:09;23.20;65.90
47414;DHT22;33163;0.000;0.000;2023-07-13T00:48:21;23.20;65.90
47414;DHT22;33163;0.000;0.000;2023-07-13T00:50:50;23.20;65.90
47414;DHT22;33163;0.000;0.000;2023-07-13T00:53:17;23.20;65.90
47414;DHT22;33163;0.000;0.000;2023-07-13T00:55:45;23.20;65.90
47414;DHT22;33163;0.000;0.000;2023-07-13T00:58:12;23.20;65.90
47414;DHT22;33163;0.000;0.000;2023-07-13T01:00:39;23.20;65.90
47414;DHT22;33163;0.000;0.000;2023-07-13T01:03:06;23.20;65.90
47414;DHT22;33163;0.000;0.000;2023-07-13T01:05:35;23.10;65.80
47414;DHT22;33163;0.000;0.000;2023-07-13T01:08:02;23.20;65.90
47414;DHT22;33163;0.000;0.000;2023-07-13T01:10:30;23.10;65.80
47414;DHT22;33163;0.000;0.000;2023-07-13T01:13:04;23.20;65.90
47414;DHT22;33163;0.000;0.000;2023-07-13T01:15:34;23.10;65.80
47414;DHT22;33163;0.000;0.000;2023-07-13T01:18:01;23.20;65.90
47414;DHT22;33163;0.000;0.000;2023-07-13T01:20:28;23.20;65.90
47414;DHT22;33163;0.000;0.000;2023-07-13T01:22:56;23.20;65.80
47414;DHT22;33163;0.000;0.000;2023-07-13T01:25:25;23.20;65.90
47414;DHT22;33163;0.000;0.000;2023-07-13T01:27:51;23.20;65.80
47414;DHT22;33163;0.000;0.000;2023-07-13T01:30:18;23.20;65.80
47414;DHT22;33163;0.000;0.000;2023-07-13T01:32:45;23.20;65.80
47414;DHT22;33163;0.000;0.000;2023-07-13T01:35:12;23.20;65.80
47414;DHT22;33163;0.000;0.000;2023-07-13T01:37:38;23.20;65.80
47414;DHT22;33163;0.000;0.000;2023-07-13T01:40:07;23.20;65.80
47414;DHT22;33163;0.000;0.000;2023-07-13T01:42:34;23.20;65.80
47414;DHT22;33163;0.000;0.000;2023-07-13T01:45:01;23.20;65.80
47414;DHT22;33163;0.000;0.000;2023-07-13T01:47:27;23.10;65.70
47414;DHT22;33163;0.000;0.000;2023-07-13T01:49:56;23.20;65.80
47414;DHT22;33163;0.000;0.000;2023-07-13T01:52:22;23.10;65.70
47414;DHT22;33163;0.000;0.000;2023-07-13T01:54:49;23.10;65.70
47414;DHT22;33163;0.000;0.000;2023-07-13T01:57:17;23.20;65.70
47414;DHT22;33163;0.000;0.000;2023-07-13T01:59:44;23.20;65.70
47414;DHT22;33163;0.000;0.000;2023-07-13T02:02:11;23.10;65.70
47414;DHT22;33163;0.000;0.000;2023-07-13T02:04:37;23.10;65.60
47414;DHT22;33163;0.000;0.000;2023-07-13T02:07:04;23.20;65.70
47414;DHT22;33163;0.000;0.000;2023-07-13T02:09:31;23.10;65.60
47414;DHT22;33163;0.000;0.000;2023-07-13T02:11:58;23.10;65.60
47414;DHT22;33163;0.000;0.000;2023-07-13T02:14:26;23.10;65.60
47414;DHT22;33163;0.000;0.000;2023-07-13T02:16:52;23.20;65.60
47414;DHT22;33163;0.000;0.000;2023-07-13T02:19:19;23.10;65.50
47414;DHT22;33163;0.000;0.000;2023-07-13T02:21:46;23.10;65.50
47414;DHT22;33163;0.000;0.000;2023-07-13T02:24:12;23.10;65.50
47414;DHT22;33163;0.000;0.000;2023-07-13T02:26:42;23.10;65.60
47414;DHT22;33163;0.000;0.000;2023-07-13T02:29:09;23.10;65.50
47414;DHT22;33163;0.000;0.000;2023-07-13T02:31:37;23.10;65.50
47414;DHT22;33163;0.000;0.000;2023-07-13T02:34:04;23.10;65.50
47414;DHT22;33163;0.000;0.000;2023-07-13T02:36:31;23.10;65.50
47414;DHT22;33163;0.000;0.000;2023-07-13T02:39:00;23.10;65.50
47414;DHT22;33163;0.000;0.000;2023-07-13T02:41:27;23.10;65.50
47414;DHT22;33163;0.000;0.000;2023-07-13T02:43:54;23.10;65.50
47414;DHT22;33163;0.000;0.000;2023-07-13T02:46:28;23.10;65.50
47414;DHT22;33163;0.000;0.000;2023-07-13T02:48:56;23.10;65.50
47414;DHT22;33163;0.000;0.000;2023-07-13T02:51:22;23.10;65.50
47414;DHT22;33163;0.000;0.000;2023-07-13T02:53:49;23.10;65.50
47414;DHT22;33163;0.000;0.000;2023-07-13T02:56:16;23.10;65.50
47414;DHT22;33163;0.000;0.000;2023-07-13T02:58:42;23.10;65.60
47414;DHT22;33163;0.000;0.000;2023-07-13T03:01:09;23.10;65.60
47414;DHT22;33163;0.000;0.000;2023-07-13T03:03:36;23.10;65.60
47414;DHT22;33163;0.000;0.000;2023-07-13T03:06:04;23.10;65.60
47414;DHT22;33163;0.000;0.000;2023-07-13T03:08:33;23.10;65.60
47414;DHT22;33163;0.000;0.000;2023-07-13T03:11:00;23.10;65.70
47414;DHT22;33163;0.000;0.000;2023-07-13T03:13:27;23.00;65.60
47414;DHT22;33163;0.000;0.000;2023-07-13T03:15:54;23.10;65.70
47414;DHT22;33163;0.000;0.000;2023-07-13T03:18:20;23.10;65.70
47414;DHT22;33163;0.000;0.000;2023-07-13T03:20:49;23.10;65.70
47414;DHT22;33163;0.000;0.000;2023-07-13T03:23:17;23.10;66.40
47414;DHT22;33163;0.000;0.000;2023-07-13T03:25:44;23.10;65.70
47414;DHT22;33163;0.000;0.000;2023-07-13T03:28:11;23.10;65.80
47414;DHT22;33163;0.000;0.000;2023-07-13T03:30:38;23.10;65.80
47414;DHT22;33163;0.000;0.000;2023-07-13T03:33:05;23.10;65.80
47414;DHT22;33163;0.000;0.000;2023-07-13T03:35:31;23.00;65.80
47414;DHT22;33163;0.000;0.000;2023-07-13T03:37:58;23.10;65.90
47414;DHT22;33163;0.000;0.000;2023-07-13T03:40:26;23.10;65.90
47414;DHT22;33163;0.000;0.000;2023-07-13T03:42:53;23.00;65.90
47414;DHT22;33163;0.000;0.000;2023-07-13T03:45:20;23.00;65.90
47414;DHT22;33163;0.000;0.000;2023-07-13T03:47:47;23.00;65.90
47414;DHT22;33163;0.000;0.000;2023-07-13T03:50:13;23.10;66.00
47414;DHT22;33163;0.000;0.000;2023-07-13T03:52:40;23.00;66.00
47414;DHT22;33163;0.000;0.000;2023-07-13T03:55:07;23.00;66.00
47414;DHT22;33163;0.000;0.000;2023-07-13T03:57:35;23.00;66.00
47414;DHT22;33163;0.000;0.000;2023-07-13T04:00:02;23.10;66.10
47414;DHT22;33163;0.000;0.000;2023-07-13T04:02:29;23.00;66.10
47414;DHT22;33163;0.000;0.000;2023-07-13T04:04:56;23.00;66.10
47414;DHT22;33163;0.000;0.000;2023-07-13T04:07:23;23.00;66.10
47414;DHT22;33163;0.000;0.000;2023-07-13T04:09:49;23.00;66.10
47414;DHT22;33163;0.000;0.000;2023-07-13T04:12:16;23.00;66.10
47414;DHT22;33163;0.000;0.000;2023-07-13T04:14:44;23.00;66.20
47414;DHT22;33163;0.000;0.000;2023-07-13T04:17:11;23.00;66.20
47414;DHT22;33163;0.000;0.000;2023-07-13T04:19:38;23.00;66.20
47414;DHT22;33163;0.000;0.000;2023-07-13T04:22:04;23.00;66.20
47414;DHT22;33163;0.000;0.000;2023-07-13T04:24:31;23.00;66.30
47414;DHT22;33163;0.000;0.000;2023-07-13T04:26:58;23.00;66.30
47414;DHT22;33163;0.000;0.000;2023-07-13T04:29:25;23.00;66.30
47414;DHT22;33163;0.000;0.000;2023-07-13T04:31:53;23.00;66.30
47414;DHT22;33163;0.000;0.000;2023-07-13T04:34:20;23.00;66.40
47414;DHT22;33163;0.000;0.000;2023-07-13T04:36:47;23.00;66.40
47414;DHT22;33163;0.000;0.000;2023-07-13T04:39:13;23.00;66.40
47414;DHT22;33163;0.000;0.000;2023-07-13T04:41:46;23.00;66.40
47414;DHT22;33163;0.000;0.000;2023-07-13T04:44:13;23.00;66.40
47414;DHT22;33163;0.000;0.000;2023-07-13T04:46:39;23.00;66.40
47414;DHT22;33163;0.000;0.000;2023-07-13T04:49:07;23.00;66.40
47414;DHT22;33163;0.000;0.000;2023-07-13T04:51:34;23.00;66.50
47414;DHT22;33163;0.000;0.000;2023-07-13T04:54:01;23.00;66.50
47414;DHT22;33163;0.000;0.000;2023-07-13T04:56:27;23.00;66.40
47414;DHT22;33163;0.000;0.000;2023-07-13T04:58:55;23.00;66.50
47414;DHT22;33163;0.000;0.000;2023-07-13T05:01:23;23.00;66.50
47414;DHT22;33163;0.000;0.000;2023-07-13T05:03:50;23.00;66.50
47414;DHT22;33163;0.000;0.000;2023-07-13T05:06:18;23.00;66.50
47414;DHT22;33163;0.000;0.000;2023-07-13T05:08:45;23.00;66.50
47414;DHT22;33163;0.000;0.000;2023-07-13T05:11:11;23.00;66.50
47414;DHT22;33163;0.000;0.000;2023-07-13T05:13:38;23.00;66.60
47414;DHT22;33163;0.000;0.000;2023-07-13T05:16:05;23.00;66.70
47414;DHT22;33163;0.000;0.000;2023-07-13T05:18:33;23.00;66.60
47414;DHT22;33163;0.000;0.000;2023-07-13T05:21:00;23.00;66.70
47414;DHT22;33163;0.000;0.000;2023-07-13T05:23:28;23.00;67.00
47414;DHT22;33163;0.000;0.000;2023-07-13T05:25:55;23.00;67.00
47414;DHT22;33163;0.000;0.000;2023-07-13T05:28:22;23.00;67.10
47414;DHT22;33163;0.000;0.000;2023-07-13T05:30:49;23.00;67.20
47414;DHT22;33163;0.000;0.000;2023-07-13T05:33:16;23.00;67.00
47414;DHT22;33163;0.000;0.000;2023-07-13T05:35:43;23.00;67.00
47414;DHT22;33163;0.000;0.000;2023-07-13T05:38:09;23.00;67.20
47414;DHT22;33163;0.000;0.000;2023-07-13T05:40:37;22.90;67.40
47414;DHT22;33163;0.000;0.000;2023-07-13T05:43:04;23.00;67.20
47414;DHT22;33163;0.000;0.000;2023-07-13T05:45:31;23.00;67.10
47414;DHT22;33163;0.000;0.000;2023-07-13T05:47:57;22.90;67.00
47414;DHT22;33163;0.000;0.000;2023-07-13T05:50:25;23.00;66.60
47414;DHT22;33163;0.000;0.000;2023-07-13T05:52:51;22.80;66.40
47414;DHT22;33163;0.000;0.000;2023-07-13T05:55:18;22.60;66.40
47414;DHT22;33163;0.000;0.000;2023-07-13T05:57:46;22.60;66.70
47414;DHT22;33163;0.000;0.000;2023-07-13T06:00:14;22.50;66.80
47414;DHT22;33163;0.000;0.000;2023-07-13T06:02:41;22.40;67.00
47414;DHT22;33163;0.000;0.000;2023-07-13T06:05:08;22.40;67.20
47414;DHT22;33163;0.000;0.000;2023-07-13T06:07:35;22.40;67.40
47414;DHT22;33163;0.000;0.000;2023-07-13T06:10:02;22.40;67.60
47414;DHT22;33163;0.000;0.000;2023-07-13T06:12:28;22.30;67.60
47414;DHT22;33163;0.000;0.000;2023-07-13T06:14:56;22.30;67.60
47414;DHT22;33163;0.000;0.000;2023-07-13T06:17:23;22.40;67.60
47414;DHT22;33163;0.000;0.000;2023-07-13T06:19:50;22.40;67.60
47414;DHT22;33163;0.000;0.000;2023-07-13T06:22:16;22.50;67.60
47414;DHT22;33163;0.000;0.000;2023-07-13T06:24:43;22.50;67.30
47414;DHT22;33163;0.000;0.000;2023-07-13T06:27:10;22.50;67.00
47414;DHT22;33163;0.000;0.000;2023-07-13T06:29:36;22.50;66.90
47414;DHT22;33163;0.000;0.000;2023-07-13T06:32:05;22.50;66.80
47414;DHT22;33163;0.000;0.000;2023-07-13T06:34:32;22.60;66.80
47414;DHT22;33163;0.000;0.000;2023-07-13T06:36:59;22.60;66.80
47414;DHT22;33163;0.000;0.000;2023-07-13T06:39:25;22.60;66.70
47414;DHT22;33163;0.000;0.000;2023-07-13T06:41:52;22.70;66.70
47414;DHT22;33163;0.000;0.000;2023-07-13T06:44:19;22.70;66.90
47414;DHT22;33163;0.000;0.000;2023-07-13T06:46:45;22.70;67.00
47414;DHT22;33163;0.000;0.000;2023-07-13T06:49:13;22.70;67.00
47414;DHT22;33163;0.000;0.000;2023-07-13T06:51:40;22.70;66.80
47414;DHT22;33163;0.000;0.000;2023-07-13T06:54:07;22.70;66.80
47414;DHT22;33163;0.000;0.000;2023-07-13T06:56:33;22.80;66.70
47414;DHT22;33163;0.000;0.000;2023-07-13T06:59:00;22.70;66.60
47414;DHT22;33163;0.000;0.000;2023-07-13T07:01:26;22.70;66.50
47414;DHT22;33163;0.000;0.000;2023-07-13T07:03:53;22.70;66.50
47414;DHT22;33163;0.000;0.000;2023-07-13T07:06:21;22.70;66.20
47414;DHT22;33163;0.000;0.000;2023-07-13T07:08:49;22.70;66.20
47414;DHT22;33163;0.000;0.000;2023-07-13T07:11:17;22.70;66.20
47414;DHT22;33163;0.000;0.000;2023-07-13T07:13:44;22.60;66.20
47414;DHT22;33163;0.000;0.000;2023-07-13T07:16:11;22.70;66.40
47414;DHT22;33163;0.000;0.000;2023-07-13T07:18:37;22.70;66.40
47414;DHT22;33163;0.000;0.000;2023-07-13T07:21:04;22.70;67.10
47414;DHT22;33163;0.000;0.000;2023-07-13T07:23:32;22.70;66.40
47414;DHT22;33163;0.000;0.000;2023-07-13T07:25:59;22.80;66.40
47414;DHT22;33163;0.000;0.000;2023-07-13T07:28:26;22.80;66.40
47414;DHT22;33163;0.000;0.000;2023-07-13T07:30:53;22.80;66.30
47414;DHT22;33163;0.000;0.000;2023-07-13T07:33:20;22.80;66.20
47414;DHT22;33163;0.000;0.000;2023-07-13T07:35:47;22.80;66.10
47414;DHT22;33163;0.000;0.000;2023-07-13T07:38:14;22.80;66.10
47414;DHT22;33163;0.000;0.000;2023-07-13T07:40:42;22.70;65.90
47414;DHT22;33163;0.000;0.000;2023-07-13T07:43:09;22.80;66.20
47414;DHT22;33163;0.000;0.000;2023-07-13T07:45:36;22.80;66.20
47414;DHT22;33163;0.000;0.000;2023-07-13T07:48:03;22.80;66.40
47414;DHT22;33163;0.000;0.000;2023-07-13T07:50:31;22.80;66.20
47414;DHT22;33163;0.000;0.000;2023-07-13T07:52:57;22.90;66.20
47414;DHT22;33163;0.000;0.000;2023-07-13T07:55:24;22.90;66.20
47414;DHT22;33163;0.000;0.000;2023-07-13T07:57:53;22.90;66.00
47414;DHT22;33163;0.000;0.000;2023-07-13T08:00:20;23.00;66.10
47414;DHT22;33163;0.000;0.000;2023-07-13T08:02:47;22.90;66.10
47414;DHT22;33163;0.000;0.000;2023-07-13T08:05:14;22.90;65.90
47414;DHT22;33163;0.000;0.000;2023-07-13T08:07:41;23.00;65.70
47414;DHT22;33163;0.000;0.000;2023-07-13T08:10:08;22.90;65.60
47414;DHT22;33163;0.000;0.000;2023-07-13T08:12:34;22.90;65.10
47414;DHT22;33163;0.000;0.000;2023-07-13T08:15:03;22.90;65.30
47414;DHT22;33163;0.000;0.000;2023-07-13T08:17:29;22.80;65.20
47414;DHT22;33163;0.000;0.000;2023-07-13T08:19:56;22.80;64.80
47414;DHT22;33163;0.000;0.000;2023-07-13T08:22:23;22.80;65.00
47414;DHT22;33163;0.000;0.000;2023-07-13T08:24:50;22.80;65.00
47414;DHT22;33163;0.000;0.000;2023-07-13T08:27:21;22.80;65.00
47414;DHT22;33163;0.000;0.000;2023-07-13T08:29:48;22.80;64.90
47414;DHT22;33163;0.000;0.000;2023-07-13T08:32:17;22.80;64.80
47414;DHT22;33163;0.000;0.000;2023-07-13T08:34:44;22.80;65.00
47414;DHT22;33163;0.000;0.000;2023-07-13T08:37:10;22.70;65.10
47414;DHT22;33163;0.000;0.000;2023-07-13T08:39:37;22.70;65.50
47414;DHT22;33163;0.000;0.000;2023-07-13T08:42:05;22.80;65.60
47414;DHT22;33163;0.000;0.000;2023-07-13T08:44:35;22.70;65.40
47414;DHT22;33163;0.000;0.000;2023-07-13T08:47:05;22.70;65.40
47414;DHT22;33163;0.000;0.000;2023-07-13T08:49:34;22.70;65.50
47414;DHT22;33163;0.000;0.000;2023-07-13T08:52:02;22.80;65.30
47414;DHT22;33163;0.000;0.000;2023-07-13T08:54:31;22.90;65.10
47414;DHT22;33163;0.000;0.000;2023-07-13T08:57:02;23.00;64.80
47414;DHT22;33163;0.000;0.000;2023-07-13T08:59:30;23.00;64.60
47414;DHT22;33163;0.000;0.000;2023-07-13T09:02:20;22.90;64.50
47414;DHT22;33163;0.000;0.000;2023-07-13T09:04:52;23.00;64.40
47414;DHT22;33163;0.000;0.000;2023-07-13T09:07:24;23.10;64.50
47414;DHT22;33163;0.000;0.000;2023-07-13T09:09:57;23.00;64.40
47414;DHT22;33163;0.000;0.000;2023-07-13T09:12:30;22.90;64.50
47414;DHT22;33163;0.000;0.000;2023-07-13T09:15:00;22.90;64.50
47414;DHT22;33163;0.000;0.000;2023-07-13T09:17:31;22.90;64.70
47414;DHT22;33163;0.000;0.000;2023-07-13T09:20:02;22.90;64.70
47414;DHT22;33163;0.000;0.000;2023-07-13T09:22:31;23.00;64.70
47414;DHT22;33163;0.000;0.000;2023-07-13T09:25:00;22.90;64.80
47414;DHT22;33163;0.000;0.000;2023-07-13T09:27:29;22.90;64.70
47414;DHT22;33163;0.000;0.000;2023-07-13T09:29:58;22.90;64.80
47414;DHT22;33163;0.000;0.000;2023-07-13T09:32:27;22.90;65.00
47414;DHT22;33163;0.000;0.000;2023-07-13T09:34:55;22.80;65.20
47414;DHT22;33163;0.000;0.000;2023-07-13T09:37:30;22.80;65.20
47414;DHT22;33163;0.000;0.000;2023-07-13T09:39:58;22.80;65.50
47414;DHT22;33163;0.000;0.000;2023-07-13T09:42:25;22.90;65.40
47414;DHT22;33163;0.000;0.000;2023-07-13T09:44:54;22.90;65.50
47414;DHT22;33163;0.000;0.000;2023-07-13T09:47:22;23.00;65.50
47414;DHT22;33163;0.000;0.000;2023-07-13T09:49:54;23.00;64.90
47414;DHT22;33163;0.000;0.000;2023-07-13T09:52:20;22.90;64.90
47414;DHT22;33163;0.000;0.000;2023-07-13T09:54:50;22.90;64.90
47414;DHT22;33163;0.000;0.000;2023-07-13T09:57:18;22.90;64.90
47414;DHT22;33163;0.000;0.000;2023-07-13T09:59:45;22.90;64.60
47414;DHT22;33163;0.000;0.000;2023-07-13T10:02:22;22.90;64.60
47414;DHT22;33163;0.000;0.000;2023-07-13T10:04:53;23.00;64.50
47414;DHT22;33163;0.000;0.000;2023-07-13T10:07:22;23.00;64.60
47414;DHT22;33163;0.000;0.000;2023-07-13T10:09:52;23.00;64.70
47414;DHT22;33163;0.000;0.000;2023-07-13T10:12:20;23.10;64.80
47414;DHT22;33163;0.000;0.000;2023-07-13T10:14:49;23.10;64.80
47414;DHT22;33163;0.000;0.000;2023-07-13T10:17:16;23.20;64.50
47414;DHT22;33163;0.000;0.000;2023-07-13T10:19:52;23.10;64.40
47414;DHT22;33163;0.000;0.000;2023-07-13T10:22:22;23.10;64.30
47414;DHT22;33163;0.000;0.000;2023-07-13T10:24:50;23.10;64.50
47414;DHT22;33163;0.000;0.000;2023-07-13T10:27:19;23.10;64.70
47414;DHT22;33163;0.000;0.000;2023-07-13T10:29:53;23.10;64.80
47414;DHT22;33163;0.000;0.000;2023-07-13T10:32:22;23.10;64.90
47414;DHT22;33163;0.000;0.000;2023-07-13T10:34:50;23.10;64.90
47414;DHT22;33163;0.000;0.000;2023-07-13T10:37:21;23.10;65.00
47414;DHT22;33163;0.000;0.000;2023-07-13T10:39:50;23.10;65.00
47414;DHT22;33163;0.000;0.000;2023-07-13T10:42:21;23.10;65.00
47414;DHT22;33163;0.000;0.000;2023-07-13T10:44:51;23.10;64.90
47414;DHT22;33163;0.000;0.000;2023-07-13T10:47:17;23.20;65.60
47414;DHT22;33163;0.000;0.000;2023-07-13T10:49:44;23.20;65.00
47414;DHT22;33163;0.000;0.000;2023-07-13T10:54:53;23.20;64.80
47414;DHT22;33163;0.000;0.000;2023-07-13T10:57:21;23.20;64.80
47414;DHT22;33163;0.000;0.000;2023-07-13T10:59:48;23.30;64.90
47414;DHT22;33163;0.000;0.000;2023-07-13T11:02:21;23.30;64.90
47414;DHT22;33163;0.000;0.000;2023-07-13T11:04:49;23.30;65.00
47414;DHT22;33163;0.000;0.000;2023-07-13T11:07:19;23.30;65.10
47414;DHT22;33163;0.000;0.000;2023-07-13T11:09:49;23.30;65.00
47414;DHT22;33163;0.000;0.000;2023-07-13T11:15:26;23.30;64.80
47414;DHT22;33163;0.000;0.000;2023-07-13T11:17:54;23.30;64.70
47414;DHT22;33163;0.000;0.000;2023-07-13T11:20:38;23.30;64.70
47414;DHT22;33163;0.000;0.000;2023-07-13T11:23:08;23.30;64.60
47414;DHT22;33163;0.000;0.000;2023-07-13T11:25:35;23.40;64.70
47414;DHT22;33163;0.000;0.000;2023-07-13T11:28:04;23.40;64.60
47414;DHT22;33163;0.000;0.000;2023-07-13T11:30:35;23.40;64.60
47414;DHT22;33163;0.000;0.000;2023-07-13T11:33:03;23.40;64.60
47414;DHT22;33163;0.000;0.000;2023-07-13T11:35:32;23.40;64.70
47414;DHT22;33163;0.000;0.000;2023-07-13T11:38:00;23.40;64.70
47414;DHT22;33163;0.000;0.000;2023-07-13T11:40:27;23.40;64.80
47414;DHT22;33163;0.000;0.000;2023-07-13T11:42:58;23.40;64.70
47414;DHT22;33163;0.000;0.000;2023-07-13T11:45:25;23.40;64.60
47414;DHT22;33163;0.000;0.000;2023-07-13T11:47:54;23.50;65.30
47414;DHT22;33163;0.000;0.000;2023-07-13T11:50:23;23.50;64.70
47414;DHT22;33163;0.000;0.000;2023-07-13T11:52:50;23.50;64.80
47414;DHT22;33163;0.000;0.000;2023-07-13T11:55:19;23.50;64.70
47414;DHT22;33163;0.000;0.000;2023-07-13T11:57:49;23.50;64.70
47414;DHT22;33163;0.000;0.000;2023-07-13T12:00:17;23.50;64.70
47414;DHT22;33163;0.000;0.000;2023-07-13T12:02:45;23.50;64.70
47414;DHT22;33163;0.000;0.000;2023-07-13T12:05:14;23.50;64.70
47414;DHT22;33163;0.000;0.000;2023-07-13T12:07:43;23.60;64.70
47414;DHT22;33163;0.000;0.000;2023-07-13T12:10:15;23.60;65.30
47414;DHT22;33163;0.000;0.000;2023-07-13T12:12:46;23.60;64.80
47414;DHT22;33163;0.000;0.000;2023-07-13T12:15:13;23.60;64.70
47414;DHT22;33163;0.000;0.000;2023-07-13T12:17:40;23.60;64.70
47414;DHT22;33163;0.000;0.000;2023-07-13T12:20:13;23.60;64.70
47414;DHT22;33163;0.000;0.000;2023-07-13T12:22:46;23.70;64.70
47414;DHT22;33163;0.000;0.000;2023-07-13T12:25:13;23.70;64.70
47414;DHT22;33163;0.000;0.000;2023-07-13T12:27:41;23.70;64.60
47414;DHT22;33163;0.000;0.000;2023-07-13T12:30:21;23.60;64.60
47414;DHT22;33163;0.000;0.000;2023-07-13T12:32:55;23.70;64.60
47414;DHT22;33163;0.000;0.000;2023-07-13T12:35:22;23.70;64.60
47414;DHT22;33163;0.000;0.000;2023-07-13T12:37:50;23.70;64.60
47414;DHT22;33163;0.000;0.000;2023-07-13T12:40:18;23.70;64.60
47414;DHT22;33163;0.000;0.000;2023-07-13T12:42:45;23.70;64.50
47414;DHT22;33163;0.000;0.000;2023-07-13T12:45:16;23.70;64.50
47414;DHT22;33163;0.000;0.000;2023-07-13T12:47:44;23.70;64.50
47414;DHT22;33163;0.000;0.000;2023-07-13T12:50:14;23.70;64.50
47414;DHT22;33163;0.000;0.000;2023-07-13T12:52:42;23.70;64.60
47414;DHT22;33163;0.000;0.000;2023-07-13T12:55:12;23.70;64.60
47414;DHT22;33163;0.000;0.000;2023-07-13T12:57:41;23.70;64.60
47414;DHT22;33163;0.000;0.000;2023-07-13T13:00:20;23.70;64.60
47414;DHT22;33163;0.000;0.000;2023-07-13T13:02:49;23.70;64.60
47414;DHT22;33163;0.000;0.000;2023-07-13T13:05:17;23.70;64.60
47414;DHT22;33163;0.000;0.000;2023-07-13T13:07:43;23.70;64.60
47414;DHT22;33163;0.000;0.000;2023-07-13T13:10:13;23.70;64.60
47414;DHT22;33163;0.000;0.000;2023-07-13T13:12:40;23.70;64.60
47414;DHT22;33163;0.000;0.000;2023-07-13T13:15:07;23.70;64.70
47414;DHT22;33163;0.000;0.000;2023-07-13T13:17:34;23.70;64.60
47414;DHT22;33163;0.000;0.000;2023-07-13T13:20:01;23.70;64.60
47414;DHT22;33163;0.000;0.000;2023-07-13T13:22:28;23.70;64.60
47414;DHT22;33163;0.000;0.000;2023-07-13T13:24:54;23.70;64.50
47414;DHT22;33163;0.000;0.000;2023-07-13T13:27:22;23.70;64.60
47414;DHT22;33163;0.000;0.000;2023-07-13T13:29:49;23.70;65.20
47414;DHT22;33163;0.000;0.000;2023-07-13T13:32:17;23.70;64.50
47414;DHT22;33163;0.000;0.000;2023-07-13T13:34:44;23.70;64.50
47414;DHT22;33163;0.000;0.000;2023-07-13T13:37:17;23.70;64.40
47414;DHT22;33163;0.000;0.000;2023-07-13T13:39:45;23.70;64.50
47414;DHT22;33163;0.000;0.000;2023-07-13T13:42:12;23.70;64.60
47414;DHT22;33163;0.000;0.000;2023-07-13T13:44:40;23.70;64.40
47414;DHT22;33163;0.000;0.000;2023-07-13T13:47:12;23.70;64.60
47414;DHT22;33163;0.000;0.000;2023-07-13T13:49:44;23.70;64.50
47414;DHT22;33163;0.000;0.000;2023-07-13T13:52:12;23.70;65.20
47414;DHT22;33163;0.000;0.000;2023-07-13T13:54:39;23.70;64.50
47414;DHT22;33163;0.000;0.000;2023-07-13T13:57:06;23.70;64.50
47414;DHT22;33163;0.000;0.000;2023-07-13T13:59:32;23.70;64.50
47414;DHT22;33163;0.000;0.000;2023-07-13T14:02:09;23.70;64.50
47414;DHT22;33163;0.000;0.000;2023-07-13T14:04:41;23.70;64.30
47414;DHT22;33163;0.000;0.000;2023-07-13T14:07:08;23.70;64.20
47414;DHT22;33163;0.000;0.000;2023-07-13T14:09:35;23.70;64.10
47414;DHT22;33163;0.000;0.000;2023-07-13T14:12:01;23.70;64.10
47414;DHT22;33163;0.000;0.000;2023-07-13T14:14:28;23.70;64.20
47414;DHT22;33163;0.000;0.000;2023-07-13T14:16:55;23.70;65.00
47414;DHT22;33163;0.000;0.000;2023-07-13T14:19:24;23.70;64.30
47414;DHT22;33163;0.000;0.000;2023-07-13T14:21:52;23.70;64.30
47414;DHT22;33163;0.000;0.000;2023-07-13T14:24:19;23.70;64.20
47414;DHT22;33163;0.000;0.000;2023-07-13T14:26:46;23.70;64.30
47414;DHT22;33163;0.000;0.000;2023-07-13T14:29:14;23.70;64.30
47414;DHT22;33163;0.000;0.000;2023-07-13T14:31:42;23.70;64.30
47414;DHT22;33163;0.000;0.000;2023-07-13T14:34:09;23.70;64.30
47414;DHT22;33163;0.000;0.000;2023-07-13T14:36:38;23.70;64.30
47414;DHT22;33163;0.000;0.000;2023-07-13T14:39:10;23.70;64.30
47414;DHT22;33163;0.000;0.000;2023-07-13T14:41:37;23.70;64.30
47414;DHT22;33163;0.000;0.000;2023-07-13T14:44:07;23.70;64.30
47414;DHT22;33163;0.000;0.000;2023-07-13T14:46:34;23.70;64.30
47414;DHT22;33163;0.000;0.000;2023-07-13T14:49:02;23.70;64.30
47414;DHT22;33163;0.000;0.000;2023-07-13T14:51:30;23.70;64.50
47414;DHT22;33163;0.000;0.000;2023-07-13T14:54:01;23.70;64.30
47414;DHT22;33163;0.000;0.000;2023-07-13T14:56:29;23.70;64.20
47414;DHT22;33163;0.000;0.000;2023-07-13T14:58:55;23.70;64.30
47414;DHT22;33163;0.000;0.000;2023-07-13T15:01:22;23.70;64.30
47414;DHT22;33163;0.000;0.000;2023-07-13T15:03:50;23.70;64.30
47414;DHT22;33163;0.000;0.000;2023-07-13T15:06:17;23.70;64.30
47414;DHT22;33163;0.000;0.000;2023-07-13T15:08:44;23.70;63.80
47414;DHT22;33163;0.000;0.000;2023-07-13T15:11:12;23.70;64.30
47414;DHT22;33163;0.000;0.000;2023-07-13T15:13:39;23.70;64.30
47414;DHT22;33163;0.000;0.000;2023-07-13T15:16:09;23.70;64.30
47414;DHT22;33163;0.000;0.000;2023-07-13T15:18:38;23.70;64.30
47414;DHT22;33163;0.000;0.000;2023-07-13T15:21:08;23.70;64.30
47414;DHT22;33163;0.000;0.000;2023-07-13T15:23:34;23.70;64.40
47414;DHT22;33163;0.000;0.000;2023-07-13T15:26:01;23.70;64.40
47414;DHT22;33163;0.000;0.000;2023-07-13T15:28:30;23.70;64.50
47414;DHT22;33163;0.000;0.000;2023-07-13T15:30:56;23.70;64.50
47414;DHT22;33163;0.000;0.000;2023-07-13T15:33:24;23.70;64.50
47414;DHT22;33163;0.000;0.000;2023-07-13T15:35:52;23.70;64.40
47414;DHT22;33163;0.000;0.000;2023-07-13T15:38:21;23.60;65.10
47414;DHT22;33163;0.000;0.000;2023-07-13T15:40:48;23.70;64.60
47414;DHT22;33163;0.000;0.000;2023-07-13T15:43:16;23.70;64.50
47414;DHT22;33163;0.000;0.000;2023-07-13T15:45:44;23.70;64.50
47414;DHT22;33163;0.000;0.000;2023-07-13T15:48:12;23.70;64.50
47414;DHT22;33163;0.000;0.000;2023-07-13T15:50:41;23.70;64.50
47414;DHT22;33163;0.000;0.000;2023-07-13T15:53:08;23.70;64.60
47414;DHT22;33163;0.000;0.000;2023-07-13T15:55:36;23.70;64.60
47414;DHT22;33163;0.000;0.000;2023-07-13T15:58:03;23.60;64.60